Terminal Aerodrome Forecast
Issued by NWS Cleveland, OH

Home | Current Version | Previous Version | Graphics & Text | Print | Product List | Glossary On
Versions: 1 2 3 4 5 6 7 8 9 10 11 12 13 14 15 16
000
FTUS41 KCLE 152325
TAFERI
TAF
KERI 152325Z 1600/1624 28020G30KT P6SM SCT023 BKN040
     FM160400 30018G28KT P6SM SCT015 BKN030
      TEMPO 1607/1611 SCT035 BKN040
     FM161100 33011G20KT P6SM SCT018 BKN040
     FM162200 30009KT P6SM SCT030 BKN060
     FM162300 30008KT P6SM FEW030 SCT070=

USA.gov is the U.S. government's official web portal to all federal, state and local government web resources and services.